CFG59J EHRD-EDDH
Flight info
| Callsign | CFG59J |
|---|---|
| Flight time | 0h 53m |
| Altitude | 23000 |
| Route | EHRD/06 N0397F230 ANDI2A ANDIK M105 RIBSO RIBS7A EDDH/05 |
| Aircraft | A333/M-SDE2E3FGHIJ1RWXYZ/S |
Departure
| Time | 2026-05-06 13:23 |
|---|---|
| Airport | Rotterdam The Hague Airport (EHRD) |
Arrival
| Time | 2026-05-06 14:16 |
|---|---|
| Airport | Hamburg Helmut Schmidt Airport (EDDH) |
| Time | Latitude | Longitude | Altitude | Speed | Heading |
|---|---|---|---|---|---|
| 2026-05-06 13:00 | 51.95034 | 4.43567 | 5 ft | 0 kts | 327° |
| 2026-05-06 13:15 | 51.95038 | 4.43563 | 5 ft | 2 kts | 327° |
| 2026-05-06 13:15 | 51.95053 | 4.43549 | 5 ft | 3 kts | 331° |
| 2026-05-06 13:15 | 51.95063 | 4.43547 | 5 ft | 1 kts | 358° |
| 2026-05-06 13:16 | 51.95066 | 4.43550 | 5 ft | 1 kts | 15° |
| 2026-05-06 13:16 | 51.95078 | 4.43560 | 5 ft | 4 kts | 23° |
| 2026-05-06 13:16 | 51.95110 | 4.43560 | 5 ft | 6 kts | 351° |
| 2026-05-06 13:16 | 51.95154 | 4.43526 | 5 ft | 8 kts | 330° |
| 2026-05-06 13:17 | 51.95202 | 4.43479 | 4 ft | 8 kts | 327° |
| 2026-05-06 13:17 | 51.95232 | 4.43407 | 4 ft | 8 kts | 274° |
| 2026-05-06 13:17 | 51.95211 | 4.43323 | 4 ft | 8 kts | 239° |
| 2026-05-06 13:17 | 51.95177 | 4.43234 | 4 ft | 10 kts | 238° |
| 2026-05-06 13:18 | 51.95143 | 4.43132 | 5 ft | 11 kts | 243° |
| 2026-05-06 13:18 | 51.95122 | 4.43067 | 5 ft | 2 kts | 244° |
| 2026-05-06 13:18 | 51.95113 | 4.43034 | 5 ft | 4 kts | 247° |
| 2026-05-06 13:18 | 51.95111 | 4.43022 | 5 ft | 0 kts | 256° |
| 2026-05-06 13:20 | 51.95110 | 4.43007 | 5 ft | 5 kts | 263° |
| 2026-05-06 13:20 | 51.95135 | 4.42923 | 5 ft | 6 kts | 321° |
| 2026-05-06 13:20 | 51.95172 | 4.42886 | 5 ft | 7 kts | 329° |
| 2026-05-06 13:20 | 51.95212 | 4.42869 | 6 ft | 2 kts | 6° |
| 2026-05-06 13:21 | 51.95223 | 4.42878 | 6 ft | 1 kts | 33° |
| 2026-05-06 13:21 | 51.95243 | 4.42917 | 6 ft | 0 kts | 54° |
| 2026-05-06 13:21 | 51.95249 | 4.42930 | 6 ft | 3 kts | 54° |
| 2026-05-06 13:21 | 51.95264 | 4.42964 | 5 ft | 5 kts | 54° |
| 2026-05-06 13:22 | 51.95286 | 4.43016 | 5 ft | 6 kts | 58° |
| 2026-05-06 13:22 | 51.95325 | 4.43114 | 5 ft | 41 kts | 57° |
| 2026-05-06 13:22 | 51.95638 | 4.43897 | 4 ft | 121 kts | 57° |
| 2026-05-06 13:22 | 51.96177 | 4.45279 | 423 ft | 157 kts | 56° |
| 2026-05-06 13:23 | 51.96679 | 4.46897 | 1096 ft | 167 kts | 75° |
| 2026-05-06 13:23 | 51.96395 | 4.48857 | 1474 ft | 201 kts | 123° |
| 2026-05-06 13:23 | 51.95174 | 4.50044 | 2160 ft | 217 kts | 169° |
| 2026-05-06 13:23 | 51.93643 | 4.49921 | 2755 ft | 223 kts | 189° |
| 2026-05-06 13:24 | 51.92110 | 4.49455 | 2971 ft | 226 kts | 189° |
| 2026-05-06 13:24 | 51.90557 | 4.49049 | 2991 ft | 225 kts | 181° |
| 2026-05-06 13:24 | 51.89069 | 4.49604 | 2988 ft | 219 kts | 146° |
| 2026-05-06 13:24 | 51.88068 | 4.51337 | 3123 ft | 209 kts | 109° |
| 2026-05-06 13:25 | 51.87910 | 4.53588 | 3614 ft | 206 kts | 74° |
| 2026-05-06 13:25 | 51.88565 | 4.55601 | 4480 ft | 202 kts | 48° |
| 2026-05-06 13:25 | 51.89531 | 4.57273 | 5342 ft | 205 kts | 43° |
| 2026-05-06 13:25 | 51.90587 | 4.58863 | 6114 ft | 209 kts | 32° |
| 2026-05-06 13:26 | 51.91930 | 4.59730 | 6896 ft | 209 kts | 12° |
| 2026-05-06 13:26 | 51.93371 | 4.60052 | 7735 ft | 211 kts | 3° |
| 2026-05-06 13:26 | 51.94850 | 4.60073 | 8500 ft | 216 kts | 356° |
| 2026-05-06 13:26 | 51.96371 | 4.59943 | 9220 ft | 223 kts | 360° |
| 2026-05-06 13:27 | 51.97928 | 4.60144 | 10039 ft | 225 kts | 7° |
| 2026-05-06 13:27 | 51.99481 | 4.60501 | 10807 ft | 227 kts | 7° |
| 2026-05-06 13:27 | 52.01062 | 4.60892 | 11490 ft | 233 kts | 8° |
| 2026-05-06 13:27 | 52.02680 | 4.61330 | 12179 ft | 239 kts | 13° |
| 2026-05-06 13:28 | 52.04144 | 4.62606 | 12886 ft | 246 kts | 39° |
| 2026-05-06 13:28 | 52.05397 | 4.64547 | 13615 ft | 251 kts | 40° |
| 2026-05-06 13:28 | 52.06693 | 4.66483 | 14290 ft | 254 kts | 40° |
| 2026-05-06 13:28 | 52.07991 | 4.68450 | 14967 ft | 256 kts | 41° |
| 2026-05-06 13:29 | 52.09286 | 4.70451 | 15651 ft | 258 kts | 41° |
| 2026-05-06 13:29 | 52.10585 | 4.72487 | 16344 ft | 260 kts | 43° |
| 2026-05-06 13:29 | 52.11882 | 4.74539 | 17029 ft | 262 kts | 41° |
| 2026-05-06 13:29 | 52.13203 | 4.76637 | 17680 ft | 265 kts | 43° |
| 2026-05-06 13:30 | 52.14526 | 4.78745 | 18338 ft | 267 kts | 43° |
| 2026-05-06 13:30 | 52.15843 | 4.80850 | 18881 ft | 271 kts | 43° |
| 2026-05-06 13:30 | 52.17223 | 4.83057 | 19384 ft | 276 kts | 43° |
| 2026-05-06 13:30 | 52.18604 | 4.85268 | 19946 ft | 279 kts | 43° |
| 2026-05-06 13:31 | 52.19983 | 4.87478 | 20424 ft | 285 kts | 43° |
| 2026-05-06 13:31 | 52.21409 | 4.89766 | 20928 ft | 289 kts | 44° |
| 2026-05-06 13:31 | 52.22846 | 4.92074 | 21515 ft | 291 kts | 43° |
| 2026-05-06 13:31 | 52.24303 | 4.94417 | 21946 ft | 298 kts | 43° |
| 2026-05-06 13:32 | 52.25792 | 4.96813 | 22467 ft | 302 kts | 44° |
| 2026-05-06 13:32 | 52.27296 | 4.99236 | 22830 ft | 303 kts | 44° |
| 2026-05-06 13:32 | 52.28821 | 5.01695 | 22886 ft | 318 kts | 44° |
| 2026-05-06 13:32 | 52.30449 | 5.04321 | 22876 ft | 340 kts | 44° |
| 2026-05-06 13:33 | 52.32217 | 5.07072 | 22874 ft | 360 kts | 39° |
| 2026-05-06 13:33 | 52.34352 | 5.09364 | 22874 ft | 377 kts | 23° |
| 2026-05-06 13:33 | 52.36882 | 5.10803 | 22874 ft | 393 kts | 14° |
| 2026-05-06 13:33 | 52.39581 | 5.11991 | 22877 ft | 410 kts | 12° |
| 2026-05-06 13:34 | 52.42401 | 5.13187 | 22874 ft | 426 kts | 13° |
| 2026-05-06 13:34 | 52.45318 | 5.14436 | 22873 ft | 440 kts | 14° |
| 2026-05-06 13:34 | 52.48272 | 5.15715 | 22879 ft | 446 kts | 13° |
| 2026-05-06 13:34 | 52.51274 | 5.17028 | 22882 ft | 447 kts | 13° |
| 2026-05-06 13:35 | 52.54284 | 5.18349 | 22890 ft | 447 kts | 14° |
| 2026-05-06 13:35 | 52.57286 | 5.19671 | 22890 ft | 446 kts | 13° |
| 2026-05-06 13:35 | 52.60288 | 5.20995 | 22885 ft | 447 kts | 14° |
| 2026-05-06 13:35 | 52.63288 | 5.22322 | 22890 ft | 446 kts | 14° |
| 2026-05-06 13:36 | 52.66291 | 5.23654 | 22895 ft | 447 kts | 13° |
| 2026-05-06 13:36 | 52.69257 | 5.25224 | 22890 ft | 449 kts | 21° |
| 2026-05-06 13:36 | 52.71977 | 5.27756 | 22894 ft | 451 kts | 36° |
| 2026-05-06 13:36 | 52.74217 | 5.31359 | 22894 ft | 452 kts | 52° |
| 2026-05-06 13:37 | 52.75830 | 5.35816 | 22907 ft | 453 kts | 65° |
| 2026-05-06 13:37 | 52.77072 | 5.40592 | 22898 ft | 453 kts | 69° |
| 2026-05-06 13:37 | 52.78159 | 5.45484 | 22897 ft | 454 kts | 71° |
| 2026-05-06 13:37 | 52.79172 | 5.50418 | 22892 ft | 453 kts | 72° |
| 2026-05-06 13:38 | 52.80164 | 5.55354 | 22889 ft | 453 kts | 72° |
| 2026-05-06 13:38 | 52.81152 | 5.60234 | 22890 ft | 453 kts | 72° |
| 2026-05-06 13:38 | 52.82167 | 5.65162 | 22893 ft | 453 kts | 72° |
| 2026-05-06 13:38 | 52.83198 | 5.70101 | 22893 ft | 453 kts | 71° |
| 2026-05-06 13:39 | 52.84232 | 5.75012 | 22892 ft | 453 kts | 72° |
| 2026-05-06 13:39 | 52.85274 | 5.79937 | 22891 ft | 453 kts | 71° |
| 2026-05-06 13:39 | 52.86316 | 5.84860 | 22893 ft | 453 kts | 72° |
| 2026-05-06 13:39 | 52.87357 | 5.89791 | 22883 ft | 454 kts | 71° |
| 2026-05-06 13:40 | 52.88397 | 5.94727 | 22886 ft | 454 kts | 72° |
| 2026-05-06 13:40 | 52.89437 | 5.99683 | 22882 ft | 455 kts | 72° |
| 2026-05-06 13:40 | 52.90473 | 6.04634 | 22890 ft | 454 kts | 71° |
| 2026-05-06 13:40 | 52.91612 | 6.09524 | 22883 ft | 455 kts | 68° |
| 2026-05-06 13:41 | 52.92896 | 6.14311 | 22883 ft | 454 kts | 65° |
| 2026-05-06 13:41 | 52.94242 | 6.18955 | 22881 ft | 454 kts | 64° |
| 2026-05-06 13:41 | 52.95665 | 6.23701 | 22883 ft | 453 kts | 64° |
| 2026-05-06 13:41 | 52.97058 | 6.28314 | 22883 ft | 453 kts | 64° |
| 2026-05-06 13:42 | 52.98467 | 6.33000 | 22877 ft | 453 kts | 64° |
| 2026-05-06 13:42 | 52.99863 | 6.37692 | 22885 ft | 454 kts | 64° |
| 2026-05-06 13:42 | 53.01251 | 6.42399 | 22881 ft | 453 kts | 64° |
| 2026-05-06 13:42 | 53.02626 | 6.47104 | 22882 ft | 453 kts | 64° |
| 2026-05-06 13:43 | 53.03997 | 6.51817 | 22884 ft | 453 kts | 64° |
| 2026-05-06 13:43 | 53.05368 | 6.56536 | 22913 ft | 453 kts | 64° |
| 2026-05-06 13:43 | 53.06736 | 6.61256 | 22909 ft | 453 kts | 65° |
| 2026-05-06 13:43 | 53.08103 | 6.65977 | 22912 ft | 454 kts | 64° |
| 2026-05-06 13:44 | 53.09468 | 6.70702 | 22915 ft | 453 kts | 64° |
| 2026-05-06 13:44 | 53.10832 | 6.75437 | 22908 ft | 454 kts | 64° |
| 2026-05-06 13:44 | 53.12194 | 6.80172 | 22908 ft | 452 kts | 64° |
| 2026-05-06 13:44 | 53.13551 | 6.84901 | 22905 ft | 453 kts | 64° |
| 2026-05-06 13:45 | 53.14910 | 6.89644 | 22898 ft | 453 kts | 64° |
| 2026-05-06 13:45 | 53.17163 | 6.97531 | 22891 ft | 453 kts | 64° |
| 2026-05-06 13:45 | 53.18512 | 7.02265 | 22895 ft | 453 kts | 64° |
| 2026-05-06 13:46 | 53.19864 | 7.07019 | 22895 ft | 453 kts | 64° |
| 2026-05-06 13:46 | 53.21212 | 7.11770 | 22900 ft | 453 kts | 65° |
| 2026-05-06 13:46 | 53.22557 | 7.16519 | 22902 ft | 453 kts | 65° |
| 2026-05-06 13:46 | 53.23903 | 7.21278 | 22905 ft | 452 kts | 65° |
| 2026-05-06 13:47 | 53.25238 | 7.26013 | 22905 ft | 450 kts | 65° |
| 2026-05-06 13:47 | 53.26568 | 7.30738 | 22905 ft | 449 kts | 65° |
| 2026-05-06 13:47 | 53.27897 | 7.35471 | 22901 ft | 449 kts | 66° |
| 2026-05-06 13:47 | 53.29222 | 7.40199 | 22906 ft | 449 kts | 65° |
| 2026-05-06 13:48 | 53.30545 | 7.44926 | 22900 ft | 449 kts | 65° |
| 2026-05-06 13:48 | 53.31867 | 7.49659 | 22904 ft | 449 kts | 65° |
| 2026-05-06 13:48 | 53.33188 | 7.54403 | 22704 ft | 448 kts | 66° |
| 2026-05-06 13:48 | 53.34497 | 7.59109 | 22007 ft | 445 kts | 66° |
| 2026-05-06 13:49 | 53.35784 | 7.63746 | 21686 ft | 433 kts | 66° |
| 2026-05-06 13:49 | 53.37030 | 7.68241 | 21457 ft | 419 kts | 66° |
| 2026-05-06 13:49 | 53.38237 | 7.72608 | 21256 ft | 406 kts | 66° |
| 2026-05-06 13:49 | 53.39386 | 7.76771 | 21136 ft | 393 kts | 66° |
| 2026-05-06 13:50 | 53.40511 | 7.80859 | 21026 ft | 380 kts | 65° |
| 2026-05-06 13:50 | 53.41601 | 7.84823 | 20886 ft | 369 kts | 66° |
| 2026-05-06 13:50 | 53.42656 | 7.88672 | 20755 ft | 357 kts | 66° |
| 2026-05-06 13:50 | 53.43677 | 7.92399 | 20618 ft | 347 kts | 66° |
| 2026-05-06 13:51 | 53.44675 | 7.96048 | 20329 ft | 342 kts | 66° |
| 2026-05-06 13:51 | 53.45661 | 7.99660 | 20000 ft | 338 kts | 65° |
| 2026-05-06 13:51 | 53.46635 | 8.03233 | 19683 ft | 334 kts | 66° |
| 2026-05-06 13:51 | 53.47597 | 8.06762 | 19358 ft | 331 kts | 67° |
| 2026-05-06 13:52 | 53.48548 | 8.10259 | 19051 ft | 327 kts | 66° |
| 2026-05-06 13:52 | 53.49489 | 8.13725 | 18737 ft | 324 kts | 67° |
| 2026-05-06 13:52 | 53.50418 | 8.17156 | 18426 ft | 321 kts | 67° |
| 2026-05-06 13:52 | 53.51335 | 8.20543 | 18097 ft | 318 kts | 67° |
| 2026-05-06 13:53 | 53.52245 | 8.23911 | 17754 ft | 315 kts | 67° |
| 2026-05-06 13:53 | 53.53148 | 8.27258 | 17403 ft | 313 kts | 66° |
| 2026-05-06 13:53 | 53.54039 | 8.30565 | 17063 ft | 310 kts | 67° |
| 2026-05-06 13:53 | 53.54927 | 8.33857 | 16732 ft | 308 kts | 66° |
| 2026-05-06 13:54 | 53.55806 | 8.37130 | 16389 ft | 305 kts | 67° |
| 2026-05-06 13:54 | 53.56679 | 8.40384 | 16052 ft | 304 kts | 66° |
| 2026-05-06 13:54 | 53.57549 | 8.43632 | 15717 ft | 304 kts | 67° |
| 2026-05-06 13:54 | 53.58405 | 8.46836 | 15409 ft | 304 kts | 67° |
| 2026-05-06 13:55 | 53.59271 | 8.50074 | 15076 ft | 303 kts | 66° |
| 2026-05-06 13:55 | 53.60131 | 8.53294 | 14754 ft | 301 kts | 67° |
| 2026-05-06 13:55 | 53.60986 | 8.56503 | 14421 ft | 298 kts | 66° |
| 2026-05-06 13:55 | 53.61829 | 8.59671 | 14067 ft | 296 kts | 67° |
| 2026-05-06 13:56 | 53.62674 | 8.62854 | 13639 ft | 298 kts | 66° |
| 2026-05-06 13:56 | 53.63521 | 8.66049 | 13153 ft | 300 kts | 66° |
| 2026-05-06 13:56 | 53.64373 | 8.69265 | 12646 ft | 301 kts | 66° |
| 2026-05-06 13:56 | 53.65227 | 8.72494 | 12120 ft | 303 kts | 66° |
| 2026-05-06 13:57 | 53.66085 | 8.75742 | 11605 ft | 304 kts | 66° |
| 2026-05-06 13:57 | 53.66944 | 8.78998 | 11096 ft | 304 kts | 65° |
| 2026-05-06 13:57 | 53.67808 | 8.82274 | 10599 ft | 305 kts | 65° |
| 2026-05-06 13:57 | 53.68670 | 8.85550 | 10133 ft | 305 kts | 65° |
| 2026-05-06 13:58 | 53.69520 | 8.88789 | 9900 ft | 296 kts | 64° |
| 2026-05-06 13:58 | 53.70330 | 8.91882 | 9885 ft | 280 kts | 65° |
| 2026-05-06 13:58 | 53.71096 | 8.94809 | 9883 ft | 265 kts | 65° |
| 2026-05-06 13:58 | 53.71818 | 8.97575 | 9884 ft | 251 kts | 65° |
| 2026-05-06 13:59 | 53.72506 | 9.00206 | 9876 ft | 238 kts | 64° |
| 2026-05-06 13:59 | 53.73162 | 9.02719 | 9881 ft | 231 kts | 65° |
| 2026-05-06 13:59 | 53.73803 | 9.05172 | 9877 ft | 230 kts | 64° |
| 2026-05-06 13:59 | 53.74247 | 9.07796 | 9868 ft | 233 kts | 87° |
| 2026-05-06 14:00 | 53.74056 | 9.10495 | 9610 ft | 236 kts | 101° |
| 2026-05-06 14:00 | 53.73646 | 9.13175 | 9375 ft | 235 kts | 104° |
| 2026-05-06 14:00 | 53.73206 | 9.15811 | 9161 ft | 232 kts | 103° |
| 2026-05-06 14:00 | 53.72763 | 9.18404 | 8952 ft | 227 kts | 104° |
| 2026-05-06 14:01 | 53.72333 | 9.20937 | 8644 ft | 223 kts | 105° |
| 2026-05-06 14:01 | 53.71602 | 9.23239 | 8232 ft | 227 kts | 133° |
| 2026-05-06 14:01 | 53.70256 | 9.24615 | 7938 ft | 228 kts | 158° |
| 2026-05-06 14:01 | 53.68736 | 9.25383 | 7862 ft | 228 kts | 163° |
| 2026-05-06 14:02 | 53.67198 | 9.26059 | 7860 ft | 228 kts | 164° |
| 2026-05-06 14:02 | 53.65650 | 9.26731 | 7596 ft | 231 kts | 163° |
| 2026-05-06 14:02 | 53.64103 | 9.27395 | 7365 ft | 228 kts | 163° |
| 2026-05-06 14:02 | 53.62576 | 9.28030 | 7154 ft | 224 kts | 163° |
| 2026-05-06 14:03 | 53.61074 | 9.28621 | 6856 ft | 222 kts | 163° |
| 2026-05-06 14:03 | 53.59565 | 9.29203 | 6523 ft | 221 kts | 163° |
| 2026-05-06 14:03 | 53.58072 | 9.29773 | 6199 ft | 220 kts | 163° |
| 2026-05-06 14:03 | 53.56586 | 9.30331 | 5908 ft | 218 kts | 164° |
| 2026-05-06 14:04 | 53.55120 | 9.30876 | 5858 ft | 219 kts | 164° |
| 2026-05-06 14:04 | 53.53633 | 9.31430 | 5860 ft | 219 kts | 164° |
| 2026-05-06 14:04 | 53.52149 | 9.31983 | 5868 ft | 219 kts | 164° |
| 2026-05-06 14:04 | 53.50656 | 9.32539 | 5860 ft | 219 kts | 164° |
| 2026-05-06 14:05 | 53.49171 | 9.33096 | 5860 ft | 218 kts | 164° |
| 2026-05-06 14:05 | 53.47695 | 9.33649 | 5883 ft | 216 kts | 164° |
| 2026-05-06 14:05 | 53.46232 | 9.34186 | 5871 ft | 215 kts | 163° |
| 2026-05-06 14:05 | 53.44766 | 9.34720 | 5852 ft | 216 kts | 164° |
| 2026-05-06 14:06 | 53.43296 | 9.35258 | 5857 ft | 216 kts | 164° |
| 2026-05-06 14:06 | 53.41835 | 9.35812 | 5861 ft | 214 kts | 162° |
| 2026-05-06 14:06 | 53.40543 | 9.36914 | 5859 ft | 209 kts | 134° |
| 2026-05-06 14:06 | 53.39831 | 9.38994 | 5554 ft | 209 kts | 100° |
| 2026-05-06 14:07 | 53.39770 | 9.41398 | 5405 ft | 205 kts | 87° |
| 2026-05-06 14:07 | 53.39883 | 9.43758 | 5290 ft | 202 kts | 84° |
| 2026-05-06 14:07 | 53.40007 | 9.46090 | 5094 ft | 201 kts | 84° |
| 2026-05-06 14:07 | 53.40131 | 9.48430 | 4875 ft | 201 kts | 84° |
| 2026-05-06 14:08 | 53.40245 | 9.50734 | 4686 ft | 200 kts | 84° |
| 2026-05-06 14:08 | 53.40616 | 9.52941 | 4495 ft | 190 kts | 66° |
| 2026-05-06 14:08 | 53.41256 | 9.54759 | 4441 ft | 176 kts | 57° |
| 2026-05-06 14:08 | 53.41975 | 9.56327 | 4457 ft | 165 kts | 53° |
| 2026-05-06 14:09 | 53.42706 | 9.57804 | 4480 ft | 168 kts | 53° |
| 2026-05-06 14:09 | 53.43476 | 9.59353 | 4481 ft | 176 kts | 52° |
| 2026-05-06 14:09 | 53.44269 | 9.60936 | 4484 ft | 178 kts | 52° |
| 2026-05-06 14:09 | 53.45060 | 9.62527 | 4484 ft | 177 kts | 52° |
| 2026-05-06 14:10 | 53.45851 | 9.64121 | 4477 ft | 178 kts | 52° |
| 2026-05-06 14:10 | 53.46648 | 9.65724 | 4477 ft | 179 kts | 52° |
| 2026-05-06 14:10 | 53.47443 | 9.67324 | 4478 ft | 178 kts | 52° |
| 2026-05-06 14:10 | 53.48240 | 9.68927 | 4413 ft | 179 kts | 52° |
| 2026-05-06 14:11 | 53.49046 | 9.70514 | 4362 ft | 179 kts | 51° |
| 2026-05-06 14:11 | 53.49856 | 9.72079 | 4296 ft | 177 kts | 51° |
| 2026-05-06 14:11 | 53.50659 | 9.73651 | 4197 ft | 176 kts | 52° |
| 2026-05-06 14:11 | 53.51447 | 9.75219 | 4115 ft | 176 kts | 52° |
| 2026-05-06 14:12 | 53.52234 | 9.76794 | 4040 ft | 175 kts | 52° |
| 2026-05-06 14:12 | 53.53015 | 9.78359 | 3961 ft | 174 kts | 52° |
| 2026-05-06 14:12 | 53.53792 | 9.79916 | 3882 ft | 174 kts | 52° |
| 2026-05-06 14:12 | 53.54540 | 9.81513 | 3804 ft | 174 kts | 53° |
| 2026-05-06 14:13 | 53.55278 | 9.83128 | 3679 ft | 174 kts | 54° |
| 2026-05-06 14:13 | 53.56010 | 9.84721 | 3443 ft | 169 kts | 54° |
| 2026-05-06 14:13 | 53.56699 | 9.86215 | 3307 ft | 153 kts | 54° |
| 2026-05-06 14:13 | 53.57319 | 9.87568 | 3174 ft | 139 kts | 54° |
| 2026-05-06 14:14 | 53.57895 | 9.88814 | 2922 ft | 135 kts | 54° |
| 2026-05-06 14:14 | 53.58497 | 9.90065 | 2432 ft | 141 kts | 50° |
| 2026-05-06 14:14 | 53.59212 | 9.91278 | 1782 ft | 150 kts | 44° |
| 2026-05-06 14:14 | 53.59991 | 9.92599 | 981 ft | 165 kts | 50° |
| 2026-05-06 14:15 | 53.60689 | 9.94103 | 535 ft | 156 kts | 49° |
| 2026-05-06 14:15 | 53.61356 | 9.95416 | 257 ft | 142 kts | 51° |
| 2026-05-06 14:15 | 53.61952 | 9.96620 | 87 ft | 125 kts | 51° |
| 2026-05-06 14:15 | 53.62454 | 9.97635 | 45 ft | 84 kts | 52° |
| 2026-05-06 14:16 | 53.62665 | 9.98065 | 47 ft | 38 kts | 51° |
| 2026-05-06 14:16 | 53.62815 | 9.98380 | 48 ft | 33 kts | 51° |
| 2026-05-06 14:16 | 53.62953 | 9.98662 | 47 ft | 30 kts | 50° |
| 2026-05-06 14:16 | 53.63080 | 9.98912 | 48 ft | 26 kts | 49° |
| 2026-05-06 14:17 | 53.63189 | 9.99132 | 50 ft | 23 kts | 50° |
| 2026-05-06 14:17 | 53.63272 | 9.99325 | 51 ft | 12 kts | 61° |
| 2026-05-06 14:17 | 53.63291 | 9.99456 | 49 ft | 11 kts | 88° |
| 2026-05-06 14:17 | 53.63289 | 9.99532 | 48 ft | 1 kts | 97° |
| 2026-05-06 14:18 | 53.63288 | 9.99546 | 48 ft | 2 kts | 98° |
| 2026-05-06 14:18 | 53.63285 | 9.99572 | 48 ft | 3 kts | 99° |
| 2026-05-06 14:18 | 53.63282 | 9.99606 | 48 ft | 3 kts | 99° |
| 2026-05-06 14:18 | 53.63280 | 9.99625 | 48 ft | 0 kts | 99° |
| 2026-05-06 14:19 | 53.63280 | 9.99628 | 48 ft | 0 kts | 99° |
| 2026-05-06 14:20 | 53.63280 | 9.99631 | 48 ft | 1 kts | 99° |
| 2026-05-06 14:20 | 53.63278 | 9.99654 | 48 ft | 3 kts | 99° |
| 2026-05-06 14:21 | 53.63267 | 9.99699 | 45 ft | 5 kts | 121° |
| 2026-05-06 14:21 | 53.63242 | 9.99741 | 47 ft | 6 kts | 146° |
| 2026-05-06 14:21 | 53.63200 | 9.99782 | 49 ft | 8 kts | 152° |
| 2026-05-06 14:21 | 53.63149 | 9.99828 | 49 ft | 9 kts | 152° |
| 2026-05-06 14:22 | 53.63090 | 9.99878 | 49 ft | 10 kts | 153° |
| 2026-05-06 14:22 | 53.63027 | 9.99932 | 49 ft | 11 kts | 154° |
| 2026-05-06 14:22 | 53.62959 | 9.99991 | 49 ft | 12 kts | 153° |
| 2026-05-06 14:22 | 53.62882 | 10.00025 | 50 ft | 11 kts | 190° |
| 2026-05-06 14:23 | 53.62822 | 9.99982 | 49 ft | 0 kts | 210° |
| 2026-05-06 14:23 | 53.62821 | 9.99981 | 49 ft | 0 kts | 210° |
| 2026-05-06 14:23 | 53.62817 | 9.99976 | 46 ft | 2 kts | 211° |
| 2026-05-06 14:23 | 53.62798 | 9.99957 | 47 ft | 4 kts | 211° |
| 2026-05-06 14:24 | 53.62766 | 9.99926 | 45 ft | 7 kts | 209° |
| 2026-05-06 14:24 | 53.62713 | 9.99878 | 50 ft | 11 kts | 208° |
| 2026-05-06 14:24 | 53.62658 | 9.99812 | 46 ft | 8 kts | 229° |
| 2026-05-06 14:24 | 53.62634 | 9.99709 | 48 ft | 5 kts | 257° |
| 2026-05-06 14:25 | 53.62624 | 9.99621 | 50 ft | 10 kts | 259° |
| 2026-05-06 14:25 | 53.62607 | 9.99476 | 47 ft | 15 kts | 259° |
| 2026-05-06 14:25 | 53.62589 | 9.99314 | 49 ft | 16 kts | 259° |
| 2026-05-06 14:25 | 53.62582 | 9.99248 | 49 ft | 6 kts | 259° |
| 2026-05-06 14:26 | 53.62588 | 9.99155 | 48 ft | 10 kts | 298° |
| 2026-05-06 14:26 | 53.62634 | 9.99106 | 48 ft | 3 kts | 352° |
| 2026-05-06 14:26 | 53.62655 | 9.99118 | 48 ft | 1 kts | 42° |
| 2026-05-06 14:26 | 53.62660 | 9.99133 | 48 ft | 1 kts | 60° |
| 2026-05-06 14:27 | 53.62663 | 9.99148 | 48 ft | 2 kts | 67° |
| 2026-05-06 14:27 | 53.62670 | 9.99177 | 48 ft | 3 kts | 67° |